createdAt,value
2023-05-14T00:00:50.645Z,102524.91
2023-05-14T00:06:24.605Z,102523.21
2023-05-14T00:09:18.662Z,102522.19
2023-05-14T00:12:05.562Z,102523.02
2023-05-14T00:14:38.679Z,102523.52
2023-05-14T00:17:25.575Z,102524.54
2023-05-14T00:19:59.630Z,102523.25
2023-05-14T00:22:47.607Z,102524.96
2023-05-14T00:25:20.628Z,102527.33
2023-05-14T00:28:07.562Z,102528.60
2023-05-14T00:30:40.691Z,102524.98
2023-05-14T00:33:28.786Z,102526.61
2023-05-14T00:36:02.631Z,102530.72
2023-05-14T00:38:49.535Z,102534.73
2023-05-14T00:41:22.588Z,102529.69
2023-05-14T00:44:09.500Z,102523.91
2023-05-14T00:46:43.998Z,102525.44
2023-05-14T00:49:30.564Z,102523.23
2023-05-14T00:52:04.536Z,102524.02
2023-05-14T00:54:54.510Z,102524.64
2023-05-14T00:57:27.552Z,102521.34
2023-05-14T01:00:17.613Z,102523.34
2023-05-14T01:02:50.763Z,102522.39
2023-05-14T01:05:57.452Z,102524.24
2023-05-14T01:08:46.546Z,102521.31
2023-05-14T01:11:40.378Z,102519.66
2023-05-14T01:14:49.587Z,102520.59
2023-05-14T01:17:40.393Z,102517.59
2023-05-14T01:20:21.803Z,102516.73
2023-05-14T01:23:02.436Z,102519.41
2023-05-14T01:25:42.512Z,102519.48
2023-05-14T01:28:25.430Z,102522.52
2023-05-14T01:31:16.518Z,102517.98
2023-05-14T01:33:56.496Z,102518.53
2023-05-14T01:36:37.492Z,102519.12
2023-05-14T01:39:18.396Z,102515.27
2023-05-14T01:41:59.439Z,102510.73
2023-05-14T01:44:40.423Z,102511.56
2023-05-14T01:47:20.473Z,102512.20
2023-05-14T01:50:00.432Z,102511.20
2023-05-14T01:52:40.468Z,102507.34
2023-05-14T01:55:20.514Z,102504.38
2023-05-14T01:58:01.498Z,102502.83
2023-05-14T02:00:41.447Z,102500.52
2023-05-14T02:03:21.898Z,102501.48
2023-05-14T02:06:02.351Z,102499.78
2023-05-14T02:08:42.406Z,102499.70
2023-05-14T02:11:22.457Z,102500.27
2023-05-14T02:14:02.525Z,102498.58
2023-05-14T02:16:42.353Z,102504.42
2023-05-14T02:19:22.499Z,102499.52
2023-05-14T02:22:03.375Z,102497.21
2023-05-14T02:24:43.423Z,102497.24
2023-05-14T02:27:23.369Z,102495.11
2023-05-14T02:30:03.350Z,102494.96
2023-05-14T02:32:43.339Z,102495.36
2023-05-14T02:35:23.534Z,102497.73
2023-05-14T02:38:03.468Z,102496.74
2023-05-14T02:40:44.442Z,102497.84
2023-05-14T02:43:24.410Z,102496.04
2023-05-14T02:46:04.426Z,102498.91
2023-05-14T02:48:44.192Z,102499.77
2023-05-14T02:51:27.396Z,102498.92
2023-05-14T02:54:07.161Z,102501.27
2023-05-14T02:56:47.536Z,102503.79
2023-05-14T02:59:27.376Z,102502.09
2023-05-14T03:02:07.357Z,102501.96
2023-05-14T03:04:48.168Z,102501.58
2023-05-14T03:07:28.309Z,102497.73
2023-05-14T03:10:08.362Z,102494.03
2023-05-14T03:12:48.313Z,102495.45
2023-05-14T03:15:28.256Z,102498.30
2023-05-14T03:18:08.361Z,102499.15
2023-05-14T03:20:48.151Z,102497.90
2023-05-14T03:23:29.323Z,102498.77
2023-05-14T03:26:09.094Z,102496.14
2023-05-14T03:28:49.226Z,102496.84
2023-05-14T03:31:29.162Z,102494.32
2023-05-14T03:34:09.344Z,102490.30
2023-05-14T03:36:49.092Z,102489.77
2023-05-14T03:39:29.237Z,102486.73
2023-05-14T03:42:10.270Z,102483.88
2023-05-14T03:44:50.391Z,102479.23
2023-05-14T03:47:30.211Z,102477.20
2023-05-14T03:50:10.530Z,102473.67
2023-05-14T03:52:51.084Z,102469.88
2023-05-14T03:55:31.155Z,102469.14
2023-05-14T03:58:14.219Z,102477.52
2023-05-14T04:00:54.206Z,102474.73
2023-05-14T04:03:34.365Z,102478.38
2023-05-14T04:06:28.020Z,102479.10
2023-05-14T04:09:15.132Z,102477.36
2023-05-14T04:11:48.116Z,102476.00
2023-05-14T04:14:35.151Z,102471.02
2023-05-14T04:17:10.077Z,102469.67
2023-05-14T04:19:57.015Z,102469.05
2023-05-14T04:22:32.141Z,102466.81
2023-05-14T04:25:18.936Z,102469.55
2023-05-14T04:27:53.127Z,102470.17
2023-05-14T04:30:39.997Z,102468.83
2023-05-14T04:33:20.071Z,102468.91
2023-05-14T04:35:59.964Z,102464.93
2023-05-14T04:38:40.000Z,102463.88
2023-05-14T04:41:19.968Z,102463.22
2023-05-14T04:44:03.043Z,102462.65
2023-05-14T04:46:42.913Z,102460.23
2023-05-14T04:49:23.024Z,102461.84
2023-05-14T04:52:02.969Z,102464.89
2023-05-14T04:54:43.131Z,102465.41
2023-05-14T04:57:22.970Z,102463.26
2023-05-14T05:00:05.991Z,102461.51
2023-05-14T05:02:46.086Z,102460.68
2023-05-14T05:05:39.855Z,102459.63
2023-05-14T05:08:26.911Z,102462.25
2023-05-14T05:11:00.049Z,102462.83
2023-05-14T05:13:47.875Z,102463.58
2023-05-14T05:16:21.091Z,102460.45
2023-05-14T05:19:07.995Z,102458.45
2023-05-14T05:21:41.946Z,102457.51
2023-05-14T05:24:28.897Z,102454.00
2023-05-14T05:27:02.138Z,102452.70
2023-05-14T05:29:49.124Z,102451.83
2023-05-14T05:32:23.425Z,102452.52
2023-05-14T05:35:09.967Z,102453.04
2023-05-14T05:37:49.918Z,102454.59
2023-05-14T05:40:29.883Z,102452.44
2023-05-14T05:43:09.921Z,102458.54
2023-05-14T05:45:49.809Z,102458.09
2023-05-14T05:48:30.012Z,102454.79
2023-05-14T05:51:10.023Z,102453.93
2023-05-14T05:53:49.884Z,102451.38
2023-05-14T05:56:29.850Z,102449.10
2023-05-14T05:59:10.121Z,102446.42
2023-05-14T06:01:50.937Z,102440.23
2023-05-14T06:04:44.736Z,102437.31
2023-05-14T06:07:31.801Z,102438.91
2023-05-14T06:10:12.880Z,102438.06
2023-05-14T06:12:52.869Z,102436.55
2023-05-14T06:15:32.924Z,102435.39
2023-05-14T06:18:12.761Z,102439.94
2023-05-14T06:20:52.907Z,102440.09
2023-05-14T06:23:32.860Z,102439.27
2023-05-14T06:26:12.905Z,102436.42
2023-05-14T06:28:52.714Z,102434.55
2023-05-14T06:31:32.841Z,102432.81
2023-05-14T06:34:12.714Z,102427.20
2023-05-14T06:36:53.824Z,102420.36
2023-05-14T06:39:33.763Z,102418.44
2023-05-14T06:42:13.722Z,102418.50
2023-05-14T06:44:53.698Z,102417.54
2023-05-14T06:47:33.821Z,102418.73
2023-05-14T06:50:13.651Z,102419.23
2023-05-14T06:52:53.803Z,102416.27
2023-05-14T06:55:33.889Z,102414.03
2023-05-14T06:58:14.722Z,102412.33
2023-05-14T07:00:54.669Z,102409.32
2023-05-14T07:03:34.721Z,102407.16
2023-05-14T07:06:14.664Z,102405.63
2023-05-14T07:08:54.720Z,102406.13
2023-05-14T07:11:34.664Z,102404.48
2023-05-14T07:14:14.726Z,102404.44
2023-05-14T07:16:54.720Z,102408.23
2023-05-14T07:19:34.753Z,102407.59
2023-05-14T07:22:14.663Z,102406.86
2023-05-14T07:24:54.809Z,102402.42
2023-05-14T07:27:34.653Z,102397.16
2023-05-14T07:30:15.831Z,102393.67
2023-05-14T07:32:56.642Z,102390.02
2023-05-14T07:35:36.651Z,102393.65
2023-05-14T07:38:16.590Z,102394.50
2023-05-14T07:40:56.635Z,102394.10
2023-05-14T07:43:36.583Z,102390.52
2023-05-14T07:46:16.842Z,102389.54
2023-05-14T07:48:56.587Z,102387.67
2023-05-14T07:51:36.633Z,102386.01
2023-05-14T07:54:16.581Z,102384.98
2023-05-14T07:56:56.732Z,102382.98
2023-05-14T07:59:36.881Z,102380.64
2023-05-14T08:02:17.160Z,102378.27
2023-05-14T08:04:57.597Z,102377.53
2023-05-14T08:07:37.655Z,102378.46
2023-05-14T08:10:17.612Z,102377.54
2023-05-14T08:12:57.641Z,102376.48
2023-05-14T08:15:45.169Z,102372.70
2023-05-14T08:18:25.676Z,102369.77
2023-05-14T08:21:05.575Z,102370.23
2023-05-14T08:23:45.693Z,102367.85
2023-05-14T08:26:25.465Z,102360.64
2023-05-14T08:29:05.827Z,102361.02
2023-05-14T08:31:45.464Z,102360.41
2023-05-14T08:34:29.094Z,102354.88
2023-05-14T08:37:09.458Z,102355.89
2023-05-14T08:39:50.907Z,102357.57
2023-05-14T08:42:32.556Z,102358.09
2023-05-14T08:45:35.340Z,102353.91
2023-05-14T08:48:24.502Z,102353.11
2023-05-14T08:51:06.449Z,102353.41
2023-05-14T08:53:47.362Z,102351.18
2023-05-14T08:56:41.287Z,102347.58
2023-05-14T08:59:28.402Z,102336.66
2023-05-14T09:02:05.320Z,102340.69
2023-05-14T09:05:02.652Z,102337.75
2023-05-14T09:07:56.311Z,102332.35
2023-05-14T09:10:43.327Z,102330.62
2023-05-14T09:13:16.493Z,102330.86
2023-05-14T09:16:05.333Z,102332.97
2023-05-14T09:18:39.492Z,102333.25
2023-05-14T09:21:27.304Z,102327.59
2023-05-14T09:24:04.499Z,102324.47
2023-05-14T09:26:51.273Z,102318.68
2023-05-14T09:29:26.221Z,102321.67
2023-05-14T09:32:16.777Z,102317.88
2023-05-14T09:34:50.397Z,102313.83
2023-05-14T09:37:40.338Z,102310.33
2023-05-14T09:40:15.201Z,102314.42
2023-05-14T09:43:03.136Z,102306.72
2023-05-14T09:45:37.990Z,102304.40
2023-05-14T09:48:26.329Z,102302.88
2023-05-14T09:51:02.304Z,102300.52
2023-05-14T09:53:54.245Z,102296.80
2023-05-14T09:56:28.362Z,102287.45
2023-05-14T09:59:16.220Z,102284.48
2023-05-14T10:01:51.157Z,102279.88
2023-05-14T10:04:40.258Z,102283.28
2023-05-14T10:07:15.977Z,102282.67
2023-05-14T10:10:08.161Z,102279.54
2023-05-14T10:12:46.360Z,102274.54
2023-05-14T10:15:44.163Z,102269.17
2023-05-14T10:18:22.260Z,102265.55
2023-05-14T10:21:13.214Z,102264.64
2023-05-14T10:23:48.251Z,102266.77
2023-05-14T10:26:35.148Z,102262.86
2023-05-14T10:29:10.053Z,102256.13
2023-05-14T10:32:00.165Z,102258.48
2023-05-14T10:34:44.233Z,102259.46
2023-05-14T10:37:34.136Z,102253.24
2023-05-14T10:40:10.704Z,102250.80
2023-05-14T10:42:57.100Z,102249.63
2023-05-14T10:45:30.712Z,102246.18
2023-05-14T10:48:18.154Z,102245.64
2023-05-14T10:50:52.253Z,102247.76
2023-05-14T10:53:41.113Z,102248.54
2023-05-14T10:56:20.720Z,102249.73
2023-05-14T10:59:07.072Z,102249.20
2023-05-14T11:01:41.204Z,102248.34
2023-05-14T11:04:31.088Z,102245.16
2023-05-14T11:07:06.144Z,102240.80
2023-05-14T11:09:54.071Z,102245.22
2023-05-14T11:12:28.807Z,102248.25
2023-05-14T11:15:21.240Z,102245.17
2023-05-14T11:17:56.162Z,102235.38
2023-05-14T11:20:43.030Z,102232.81
2023-05-14T11:23:16.221Z,102234.52
2023-05-14T11:26:04.029Z,102237.39
2023-05-14T11:28:39.183Z,102238.52
2023-05-14T11:31:26.092Z,102235.56
2023-05-14T11:34:01.177Z,102233.95
2023-05-14T11:36:49.015Z,102229.61
2023-05-14T11:39:26.119Z,102230.83
2023-05-14T11:42:23.024Z,102228.02
2023-05-14T11:44:58.094Z,102238.36
2023-05-14T11:47:46.019Z,102241.04
2023-05-14T11:50:19.670Z,102231.48
2023-05-14T11:53:07.068Z,102223.64
2023-05-14T11:55:44.026Z,102219.73
2023-05-14T11:58:31.946Z,102218.18
2023-05-14T12:01:05.003Z,102216.17
2023-05-14T12:03:52.063Z,102214.13
2023-05-14T12:06:26.176Z,102214.36
2023-05-14T12:09:13.987Z,102213.48
2023-05-14T12:11:47.151Z,102214.08
2023-05-14T12:14:33.889Z,102210.25
2023-05-14T12:17:08.986Z,102201.75
2023-05-14T12:19:59.094Z,102199.52
2023-05-14T12:22:33.874Z,102201.71
2023-05-14T12:25:21.946Z,102202.52
2023-05-14T12:27:54.946Z,102199.35
2023-05-14T12:30:44.853Z,102191.40
2023-05-14T12:33:18.219Z,102189.23
2023-05-14T12:36:20.311Z,102191.19
2023-05-14T12:38:56.177Z,102186.20
2023-05-14T12:41:42.925Z,102179.70
2023-05-14T12:44:15.995Z,102177.34
2023-05-14T12:47:02.863Z,102172.15
2023-05-14T12:49:36.418Z,102166.73
2023-05-14T12:52:37.748Z,102160.27
2023-05-14T12:55:13.929Z,102157.11
2023-05-14T12:58:00.826Z,102156.47
2023-05-14T13:00:34.042Z,102158.33
2023-05-14T13:03:20.866Z,102151.65
2023-05-14T13:05:55.033Z,102148.00
2023-05-14T13:08:43.319Z,102148.70
2023-05-14T13:11:16.878Z,102143.19
2023-05-14T13:14:03.814Z,102139.88
2023-05-14T13:16:36.907Z,102136.06
2023-05-14T13:19:23.889Z,102130.91
